createdAt,value
2023-03-02T00:00:11.603Z,67.66
2023-03-02T00:01:11.602Z,67.42
2023-03-02T00:02:11.661Z,67.66
2023-03-02T00:03:11.555Z,67.14
2023-03-02T00:04:11.667Z,67.45
2023-03-02T00:05:11.546Z,67.83
2023-03-02T00:06:11.538Z,67.35
2023-03-02T00:07:11.526Z,67.45
2023-03-02T00:08:11.505Z,67.86
2023-03-02T00:09:11.503Z,67.14
2023-03-02T00:10:11.493Z,67.35
2023-03-02T00:11:11.468Z,68.07
2023-03-02T00:12:11.482Z,67.76
2023-03-02T00:13:11.447Z,67.86
2023-03-02T00:14:11.475Z,67.66
2023-03-02T00:15:11.432Z,67.24
2023-03-02T00:16:11.523Z,67.66
2023-03-02T00:17:11.417Z,67.66
2023-03-02T00:18:11.411Z,68.18
2023-03-02T00:19:11.388Z,68.07
2023-03-02T00:20:11.392Z,68.07
2023-03-02T00:21:11.373Z,68.00
2023-03-02T00:22:11.343Z,68.38
2023-03-02T00:23:11.344Z,68.73
2023-03-02T00:24:11.358Z,68.70
2023-03-02T00:25:11.332Z,68.52
2023-03-02T00:26:11.319Z,68.49
2023-03-02T00:27:11.284Z,68.70
2023-03-02T00:28:11.295Z,68.38
2023-03-02T00:29:11.275Z,68.52
2023-03-02T00:30:11.284Z,69.04
2023-03-02T00:31:11.326Z,69.15
2023-03-02T00:32:11.267Z,68.94
2023-03-02T00:33:11.220Z,69.15
2023-03-02T00:34:11.223Z,69.04
2023-03-02T00:35:11.215Z,68.97
2023-03-02T00:36:11.199Z,69.04
2023-03-02T00:37:11.174Z,69.35
2023-03-02T00:38:11.162Z,69.35
2023-03-02T00:39:11.185Z,69.15
2023-03-02T00:40:11.144Z,69.07
2023-03-02T00:41:11.124Z,69.18
2023-03-02T00:42:11.130Z,69.07
2023-03-02T00:43:11.102Z,69.18
2023-03-02T00:44:11.128Z,69.28
2023-03-02T00:45:11.095Z,69.18
2023-03-02T00:46:11.171Z,69.07
2023-03-02T00:47:11.065Z,69.07
2023-03-02T00:48:11.054Z,69.38
2023-03-02T00:49:11.062Z,69.38
2023-03-02T00:50:11.047Z,69.07
2023-03-02T00:51:11.072Z,69.28
2023-03-02T00:52:11.018Z,69.70
2023-03-02T00:53:10.987Z,69.73
2023-03-02T00:54:10.992Z,70.36
2023-03-02T00:55:10.980Z,70.36
2023-03-02T00:56:11.060Z,70.15
2023-03-02T00:57:10.942Z,70.36
2023-03-02T00:58:10.937Z,70.36
2023-03-02T00:59:10.921Z,70.56
2023-03-02T01:00:11.336Z,70.36
2023-03-02T01:01:10.901Z,70.98
2023-03-02T01:02:10.957Z,71.12
2023-03-02T01:03:11.033Z,71.01
2023-03-02T01:04:10.898Z,72.06
2023-03-02T01:05:10.869Z,71.64
2023-03-02T01:06:10.868Z,72.47
2023-03-02T01:07:10.835Z,72.47
2023-03-02T01:08:10.841Z,72.58
2023-03-02T01:09:10.825Z,72.47
2023-03-02T01:10:10.823Z,72.16
2023-03-02T01:11:10.791Z,72.06
2023-03-02T01:12:10.802Z,72.72
2023-03-02T01:13:10.782Z,72.27
2023-03-02T01:14:10.796Z,72.51
2023-03-02T01:15:10.764Z,72.61
2023-03-02T01:16:10.771Z,72.09
2023-03-02T01:17:10.743Z,72.09
2023-03-02T01:18:12.119Z,71.57
2023-03-02T01:19:10.703Z,71.88
2023-03-02T01:20:10.720Z,71.78
2023-03-02T01:21:10.692Z,72.51
2023-03-02T01:22:10.678Z,72.51
2023-03-02T01:23:10.673Z,72.41
2023-03-02T01:24:10.654Z,71.91
2023-03-02T01:25:10.650Z,72.41
2023-03-02T01:26:10.631Z,71.88
2023-03-02T01:27:10.628Z,72.54
2023-03-02T01:28:10.616Z,72.19
2023-03-02T01:29:10.608Z,72.19
2023-03-02T01:30:10.598Z,72.51
2023-03-02T01:31:10.641Z,72.64
2023-03-02T01:32:10.698Z,72.30
2023-03-02T01:33:10.553Z,71.78
2023-03-02T01:34:10.578Z,71.57
2023-03-02T01:35:10.574Z,71.78
2023-03-02T01:36:10.521Z,71.91
2023-03-02T01:37:10.500Z,71.39
2023-03-02T01:38:10.524Z,71.70
2023-03-02T01:39:10.478Z,71.91
2023-03-02T01:40:10.484Z,72.64
2023-03-02T01:41:10.460Z,72.19
2023-03-02T01:42:10.466Z,72.54
2023-03-02T01:43:10.462Z,72.72
2023-03-02T01:44:10.428Z,72.96
2023-03-02T01:45:10.451Z,72.82
2023-03-02T01:46:10.457Z,72.64
2023-03-02T01:47:10.388Z,72.75
2023-03-02T01:48:10.385Z,72.85
2023-03-02T01:49:10.383Z,73.27
2023-03-02T01:50:10.404Z,73.48
2023-03-02T01:51:10.342Z,74.11
2023-03-02T01:52:10.333Z,73.69
2023-03-02T01:53:10.340Z,74.42
2023-03-02T01:54:10.327Z,74.35
2023-03-02T01:55:10.316Z,74.45
2023-03-02T01:56:10.289Z,74.52
2023-03-02T01:57:10.279Z,74.42
2023-03-02T01:58:10.265Z,74.56
2023-03-02T01:59:10.257Z,74.24
2023-03-02T02:00:10.243Z,74.24
2023-03-02T02:01:10.283Z,74.66
2023-03-02T02:02:10.235Z,74.66
2023-03-02T02:03:10.218Z,74.35
2023-03-02T02:04:10.286Z,74.45
2023-03-02T02:05:10.198Z,74.35
2023-03-02T02:06:10.271Z,74.35
2023-03-02T02:07:10.172Z,74.45
2023-03-02T02:08:10.152Z,74.04
2023-03-02T02:09:10.137Z,74.45
2023-03-02T02:10:10.161Z,74.45
2023-03-02T02:11:10.127Z,74.28
2023-03-02T02:12:10.111Z,74.56
2023-03-02T02:13:10.100Z,74.35
2023-03-02T02:14:10.099Z,74.66
2023-03-02T02:15:10.081Z,74.80
2023-03-02T02:16:10.229Z,74.69
2023-03-02T02:17:10.065Z,74.56
2023-03-02T02:18:10.063Z,74.59
2023-03-02T02:19:10.048Z,74.87
2023-03-02T02:20:10.041Z,74.77
2023-03-02T02:21:10.017Z,74.77
2023-03-02T02:22:10.048Z,74.69
2023-03-02T02:23:09.982Z,74.49
2023-03-02T02:24:10.004Z,74.45
2023-03-02T02:25:09.956Z,74.49
2023-03-02T02:26:10.040Z,75.32
2023-03-02T02:27:09.951Z,75.63
2023-03-02T02:28:09.925Z,75.85
2023-03-02T02:29:09.922Z,76.16
2023-03-02T02:30:09.915Z,76.26
2023-03-02T02:31:09.901Z,76.47
2023-03-02T02:32:10.048Z,76.16
2023-03-02T02:33:09.880Z,76.30
2023-03-02T02:34:09.857Z,76.26
2023-03-02T02:35:09.845Z,76.37
2023-03-02T02:36:09.853Z,76.51
2023-03-02T02:37:09.850Z,77.00
2023-03-02T02:38:09.834Z,76.89
2023-03-02T02:39:09.799Z,77.24
2023-03-02T02:40:09.791Z,77.03
2023-03-02T02:41:09.792Z,77.03
2023-03-02T02:42:09.815Z,77.03
2023-03-02T02:43:09.760Z,76.37
2023-03-02T02:44:09.747Z,76.47
2023-03-02T02:45:09.745Z,76.30
2023-03-02T02:46:09.801Z,76.26
2023-03-02T02:47:09.742Z,76.51
2023-03-02T02:48:09.700Z,76.06
2023-03-02T02:49:09.706Z,77.03
2023-03-02T02:50:09.697Z,77.24
2023-03-02T02:51:09.662Z,77.24
2023-03-02T02:52:09.668Z,77.14
2023-03-02T02:53:09.659Z,77.03
2023-03-02T02:54:09.668Z,76.93
2023-03-02T02:55:09.662Z,76.82
2023-03-02T02:56:09.631Z,76.93
2023-03-02T02:57:09.622Z,77.51
2023-03-02T02:58:09.601Z,77.34
2023-03-02T02:59:09.609Z,77.34
2023-03-02T03:00:09.581Z,77.45
2023-03-02T03:01:09.611Z,77.34
2023-03-02T03:02:09.585Z,77.76
2023-03-02T03:03:09.542Z,77.03
2023-03-02T03:04:09.573Z,76.82
2023-03-02T03:05:09.507Z,77.14
2023-03-02T03:06:09.514Z,77.24
2023-03-02T03:07:09.524Z,77.45
2023-03-02T03:08:09.494Z,77.24
2023-03-02T03:09:09.472Z,77.24
2023-03-02T03:10:09.483Z,77.66
2023-03-02T03:11:09.439Z,77.45
2023-03-02T03:12:09.451Z,77.45
2023-03-02T03:13:09.434Z,77.66
2023-03-02T03:14:09.425Z,77.34
2023-03-02T03:15:09.394Z,77.34
2023-03-02T03:16:09.386Z,77.24
2023-03-02T03:17:09.515Z,77.24
2023-03-02T03:18:09.372Z,77.34
2023-03-02T03:19:09.367Z,77.45
2023-03-02T03:20:09.556Z,77.45
2023-03-02T03:21:09.338Z,77.45
2023-03-02T03:22:09.343Z,77.24
2023-03-02T03:23:09.309Z,77.45
2023-03-02T03:24:09.320Z,77.34
2023-03-02T03:25:09.292Z,77.45
2023-03-02T03:26:09.326Z,77.66
2023-03-02T03:27:09.288Z,77.34
2023-03-02T03:28:09.247Z,77.34
2023-03-02T03:29:09.250Z,77.45
2023-03-02T03:30:09.223Z,77.55
2023-03-02T03:31:09.294Z,77.66
2023-03-02T03:32:09.335Z,77.45
2023-03-02T03:33:09.186Z,77.66
2023-03-02T03:34:09.183Z,77.87
2023-03-02T03:35:09.161Z,77.87
2023-03-02T03:36:09.168Z,76.82
2023-03-02T03:37:09.152Z,77.14
2023-03-02T03:38:09.144Z,76.93
2023-03-02T03:39:09.117Z,76.72
2023-03-02T03:40:09.116Z,76.61
2023-03-02T03:41:09.111Z,77.03
2023-03-02T03:42:09.140Z,76.30
2023-03-02T03:43:09.084Z,76.61
2023-03-02T03:44:09.086Z,76.61
2023-03-02T03:45:09.065Z,76.51
2023-03-02T03:46:09.063Z,77.24
2023-03-02T03:47:09.063Z,77.14
2023-03-02T03:48:09.014Z,77.24
2023-03-02T03:49:09.021Z,76.93
2023-03-02T03:50:09.025Z,77.45
2023-03-02T03:51:08.995Z,76.93
2023-03-02T03:52:08.997Z,76.93
2023-03-02T03:53:08.974Z,77.38
2023-03-02T03:54:08.967Z,77.24
2023-03-02T03:55:08.942Z,77.48
2023-03-02T03:56:08.941Z,77.34
2023-03-02T03:57:08.928Z,77.45
2023-03-02T03:58:09.001Z,77.80
2023-03-02T03:59:08.907Z,77.28
2023-03-02T04:00:08.879Z,77.48
2023-03-02T04:01:08.923Z,77.48
2023-03-02T04:02:08.888Z,77.52
2023-03-02T04:03:08.847Z,77.38
2023-03-02T04:04:08.827Z,77.28
2023-03-02T04:05:08.837Z,77.80
2023-03-02T04:06:08.822Z,77.80
2023-03-02T04:07:08.824Z,77.83
2023-03-02T04:08:08.797Z,77.80
2023-03-02T04:09:08.791Z,77.62
2023-03-02T04:10:08.765Z,77.90
2023-03-02T04:11:08.775Z,77.94
2023-03-02T04:12:08.750Z,78.25
2023-03-02T04:13:08.748Z,78.15
2023-03-02T04:14:08.804Z,77.69
2023-03-02T04:15:08.709Z,77.42
2023-03-02T04:16:08.797Z,78.56
2023-03-02T04:17:08.733Z,78.36
2023-03-02T04:18:08.676Z,79.09
2023-03-02T04:19:08.660Z,79.09
2023-03-02T04:20:08.657Z,78.67
2023-03-02T04:21:08.654Z,79.50
2023-03-02T04:22:08.642Z,78.88
2023-03-02T04:23:08.636Z,78.99
2023-03-02T04:24:08.608Z,79.82
2023-03-02T04:25:08.606Z,79.72
2023-03-02T04:26:08.814Z,79.50
2023-03-02T04:27:08.588Z,79.50
2023-03-02T04:28:08.563Z,79.30
2023-03-02T04:29:08.566Z,79.82
2023-03-02T04:30:08.567Z,79.82
2023-03-02T04:31:08.597Z,79.50
2023-03-02T04:32:08.581Z,79.61
2023-03-02T04:33:08.525Z,79.61
2023-03-02T04:34:08.499Z,80.13
2023-03-02T04:35:08.491Z,79.82
2023-03-02T04:36:08.479Z,79.61
2023-03-02T04:37:08.495Z,79.89
2023-03-02T04:38:08.467Z,79.82
2023-03-02T04:39:08.459Z,79.40
2023-03-02T04:40:08.446Z,79.82
2023-03-02T04:41:08.441Z,79.93
2023-03-02T04:42:08.425Z,80.55
2023-03-02T04:43:08.405Z,80.35
2023-03-02T04:44:08.391Z,80.45
2023-03-02T04:45:08.382Z,79.79
2023-03-02T04:46:08.426Z,79.50
2023-03-02T04:47:08.383Z,79.82
2023-03-02T04:48:08.348Z,79.61
2023-03-02T04:49:08.352Z,79.72
2023-03-02T04:50:08.337Z,79.61
2023-03-02T04:51:08.317Z,80.24
2023-03-02T04:52:08.318Z,80.97
2023-03-02T04:53:08.308Z,80.76
2023-03-02T04:54:08.284Z,81.07
2023-03-02T04:55:08.304Z,81.60
2023-03-02T04:56:08.274Z,81.29
2023-03-02T04:57:08.277Z,81.49
2023-03-02T04:58:08.248Z,81.60
2023-03-02T04:59:08.242Z,81.70
2023-03-02T05:00:08.218Z,81.43
2023-03-02T05:01:08.210Z,81.32
2023-03-02T05:02:08.303Z,81.07
2023-03-02T05:03:08.183Z,81.63
2023-03-02T05:04:08.306Z,81.32
2023-03-02T05:05:08.173Z,81.43
2023-03-02T05:06:08.148Z,80.76
2023-03-02T05:07:08.169Z,80.49
2023-03-02T05:08:08.125Z,80.45
2023-03-02T05:09:08.162Z,81.32
2023-03-02T05:10:08.099Z,81.43
2023-03-02T05:11:08.111Z,81.60
2023-03-02T05:12:08.090Z,81.22
2023-03-02T05:13:08.087Z,81.22
2023-03-02T05:14:08.058Z,81.29
2023-03-02T05:15:08.087Z,81.43
2023-03-02T05:16:08.086Z,81.63
2023-03-02T05:17:08.035Z,81.12
2023-03-02T05:18:08.041Z,81.43
2023-03-02T05:19:08.015Z,81.22
2023-03-02T05:20:07.989Z,81.63
2023-03-02T05:21:07.994Z,81.74
2023-03-02T05:22:07.998Z,81.63
2023-03-02T05:23:07.985Z,81.85
2023-03-02T05:24:07.961Z,82.06
2023-03-02T05:25:07.939Z,82.47
2023-03-02T05:26:07.937Z,82.47
2023-03-02T05:27:07.942Z,82.58
2023-03-02T05:28:07.897Z,82.79
2023-03-02T05:29:07.925Z,82.47
2023-03-02T05:30:07.876Z,82.89
2023-03-02T05:31:07.952Z,83.00
2023-03-02T05:32:07.958Z,82.47
2023-03-02T05:33:07.844Z,82.65
2023-03-02T05:34:07.862Z,82.96
2023-03-02T05:35:07.834Z,83.17
2023-03-02T05:36:07.821Z,82.43
2023-03-02T05:37:07.833Z,82.33
2023-03-02T05:38:07.784Z,82.65
2023-03-02T05:39:07.787Z,82.65
2023-03-02T05:40:08.377Z,82.12
2023-03-02T05:41:07.752Z,82.02
2023-03-02T05:42:07.761Z,81.98
2023-03-02T05:43:07.748Z,81.92
2023-03-02T05:44:07.715Z,82.12
2023-03-02T05:45:07.709Z,81.92
2023-03-02T05:46:07.711Z,81.81
2023-03-02T05:47:07.759Z,81.81
2023-03-02T05:48:07.674Z,81.70
2023-03-02T05:49:07.664Z,81.92
2023-03-02T05:50:07.668Z,81.92
2023-03-02T05:51:07.659Z,81.60
2023-03-02T05:52:07.642Z,81.81
2023-03-02T05:53:07.621Z,81.60
2023-03-02T05:54:07.608Z,81.92
2023-03-02T05:55:07.610Z,81.92
2023-03-02T05:56:07.578Z,82.02
2023-03-02T05:57:07.598Z,81.49
2023-03-02T05:58:07.569Z,81.60
2023-03-02T05:59:07.564Z,81.49
2023-03-02T06:00:07.548Z,81.49
2023-03-02T06:01:07.524Z,82.23
2023-03-02T06:02:07.576Z,82.12
2023-03-02T06:03:07.559Z,82.43
2023-03-02T06:04:07.505Z,82.23
2023-03-02T06:05:07.479Z,82.54
2023-03-02T06:06:07.501Z,82.02
2023-03-02T06:07:07.488Z,82.02
2023-03-02T06:08:07.441Z,81.81
2023-03-02T06:09:07.457Z,82.12
2023-03-02T06:10:07.433Z,81.85
2023-03-02T06:11:07.427Z,82.23
2023-03-02T06:12:07.410Z,82.16
2023-03-02T06:13:07.392Z,81.81
2023-03-02T06:14:07.376Z,81.81
2023-03-02T06:15:07.379Z,82.23
2023-03-02T06:16:07.407Z,81.74
2023-03-02T06:17:07.361Z,81.81
2023-03-02T06:18:07.394Z,81.63
2023-03-02T06:19:07.322Z,82.26
2023-03-02T06:20:07.304Z,81.81
2023-03-02T06:21:07.320Z,82.12
2023-03-02T06:22:07.333Z,82.26
2023-03-02T06:23:07.292Z,82.02
2023-03-02T06:24:07.266Z,81.85
2023-03-02T06:25:07.255Z,81.85
2023-03-02T06:26:07.249Z,81.85
2023-03-02T06:27:07.259Z,82.16
2023-03-02T06:28:07.216Z,82.47
2023-03-02T06:29:07.217Z,82.65
2023-03-02T06:30:07.209Z,82.33
2023-03-02T06:31:07.192Z,82.47
2023-03-02T06:32:07.297Z,82.06
2023-03-02T06:33:07.165Z,82.02
2023-03-02T06:34:07.166Z,82.06
2023-03-02T06:35:07.220Z,82.02
2023-03-02T06:36:07.262Z,81.85
2023-03-02T06:37:07.149Z,81.70
2023-03-02T06:38:07.145Z,82.02
2023-03-02T06:39:07.100Z,81.70
2023-03-02T06:40:07.083Z,81.70
2023-03-02T06:41:07.090Z,82.37
2023-03-02T06:42:07.091Z,81.49
2023-03-02T06:43:07.073Z,81.49
2023-03-02T06:44:07.058Z,81.07
2023-03-02T06:45:07.029Z,81.07
2023-03-02T06:46:07.069Z,81.07
2023-03-02T06:47:07.047Z,80.45
2023-03-02T06:48:06.994Z,81.04
2023-03-02T06:49:06.986Z,80.13
2023-03-02T06:50:06.992Z,79.99
2023-03-02T06:51:06.976Z,79.47
2023-03-02T06:52:06.976Z,79.68
2023-03-02T06:53:06.955Z,79.64
2023-03-02T06:54:06.952Z,79.26
2023-03-02T06:55:06.920Z,79.22
2023-03-02T06:56:06.920Z,79.12
2023-03-02T06:57:06.909Z,78.91
2023-03-02T06:58:06.896Z,79.02
2023-03-02T06:59:06.876Z,78.49
2023-03-02T07:00:06.876Z,78.60
2023-03-02T07:01:06.919Z,79.12
2023-03-02T07:02:06.848Z,78.81
2023-03-02T07:03:06.829Z,78.39
2023-03-02T07:04:06.906Z,78.39
2023-03-02T07:05:06.806Z,78.91
2023-03-02T07:06:06.804Z,78.04
2023-03-02T07:07:06.801Z,78.98
2023-03-02T07:08:06.771Z,78.88
2023-03-02T07:09:06.762Z,78.00
2023-03-02T07:10:06.821Z,77.80
2023-03-02T07:11:06.756Z,77.69
2023-03-02T07:12:06.743Z,77.90
2023-03-02T07:13:08.978Z,78.00
2023-03-02T07:14:06.706Z,77.59
2023-03-02T07:15:06.697Z,78.18
2023-03-02T07:16:06.674Z,77.97
2023-03-02T07:17:06.795Z,77.66
2023-03-02T07:18:06.676Z,77.45
2023-03-02T07:19:06.654Z,77.41
2023-03-02T07:20:06.644Z,77.31
2023-03-02T07:21:06.622Z,77.62
2023-03-02T07:22:06.606Z,76.86
2023-03-02T07:23:06.597Z,75.71
2023-03-02T07:24:06.614Z,75.60
2023-03-02T07:25:06.579Z,74.56
2023-03-02T07:26:06.598Z,74.84
2023-03-02T07:27:06.571Z,73.90
2023-03-02T07:28:06.538Z,73.76
2023-03-02T07:29:06.549Z,73.24
2023-03-02T07:30:06.529Z,73.73
2023-03-02T07:31:06.615Z,73.52
2023-03-02T07:32:06.558Z,73.21
2023-03-02T07:33:06.499Z,72.76
2023-03-02T07:34:06.495Z,71.92
2023-03-02T07:35:06.463Z,71.48
2023-03-02T07:36:06.456Z,71.69
2023-03-02T07:37:06.460Z,71.06
2023-03-02T07:38:06.429Z,70.72
2023-03-02T07:39:06.447Z,70.61
2023-03-02T07:40:06.430Z,70.89
2023-03-02T07:41:06.404Z,70.06
2023-03-02T07:42:06.410Z,70.13
2023-03-02T07:43:06.376Z,70.23
2023-03-02T07:44:06.372Z,70.44
2023-03-02T07:45:06.366Z,68.02
2023-03-02T07:46:06.430Z,68.44
2023-03-02T07:47:06.356Z,67.68
2023-03-02T07:48:06.332Z,67.79
2023-03-02T07:49:06.326Z,67.68
2023-03-02T07:50:06.295Z,67.34
2023-03-02T07:51:06.290Z,66.61
2023-03-02T07:52:06.277Z,66.68
2023-03-02T07:53:06.279Z,66.03
2023-03-02T07:54:06.267Z,65.44
2023-03-02T07:55:06.253Z,65.62
2023-03-02T07:56:06.236Z,64.69
2023-03-02T07:57:06.219Z,64.45
2023-03-02T07:58:06.240Z,64.55
2023-03-02T07:59:06.218Z,64.76
2023-03-02T08:00:06.191Z,63.72
2023-03-02T08:01:06.195Z,63.28
2023-03-02T08:02:06.242Z,63.35
2023-03-02T08:03:06.222Z,63.15
2023-03-02T08:04:06.172Z,63.32
2023-03-02T08:05:06.126Z,63.32
2023-03-02T08:06:06.124Z,61.57
2023-03-02T08:07:06.121Z,60.91
2023-03-02T08:08:06.109Z,61.02
2023-03-02T08:09:06.106Z,60.78
2023-03-02T08:10:06.105Z,60.06
2023-03-02T08:11:06.070Z,59.64
2023-03-02T08:12:06.070Z,59.52
2023-03-02T08:13:06.053Z,60.14
2023-03-02T08:14:06.099Z,60.34
2023-03-02T08:15:06.014Z,60.42
2023-03-02T08:16:06.077Z,59.69
2023-03-02T08:17:05.998Z,59.15
2023-03-02T08:18:08.951Z,58.92
2023-03-02T08:19:05.994Z,58.94
2023-03-02T08:20:05.996Z,58.94
2023-03-02T08:21:05.946Z,58.92
2023-03-02T08:22:05.951Z,58.17
2023-03-02T08:23:05.930Z,57.34
2023-03-02T08:24:05.970Z,57.21
2023-03-02T08:25:05.900Z,57.11
2023-03-02T08:26:06.144Z,57.18
2023-03-02T08:27:05.891Z,55.95
2023-03-02T08:28:05.884Z,55.64
2023-03-02T08:29:05.873Z,56.36
2023-03-02T08:30:05.901Z,56.75
2023-03-02T08:31:05.903Z,55.07
2023-03-02T08:32:06.050Z,54.15
2023-03-02T08:33:07.219Z,54.25
2023-03-02T08:34:05.879Z,54.87
2023-03-02T08:35:05.798Z,54.64
2023-03-02T08:36:05.870Z,54.22
2023-03-02T08:37:05.792Z,54.00
2023-03-02T08:38:05.762Z,53.79
2023-03-02T08:39:05.756Z,54.20
2023-03-02T08:40:05.770Z,52.86
2023-03-02T08:41:05.760Z,51.32
2023-03-02T08:42:05.733Z,51.53
2023-03-02T08:43:08.064Z,52.14
2023-03-02T08:44:05.713Z,52.22
2023-03-02T08:45:05.704Z,52.86
2023-03-02T08:46:05.797Z,52.56
2023-03-02T08:47:05.682Z,52.76
2023-03-02T08:48:05.716Z,52.84
2023-03-02T08:49:05.632Z,52.01
2023-03-02T08:50:05.661Z,52.43
2023-03-02T08:51:05.612Z,52.61
2023-03-02T08:52:05.618Z,52.09
2023-03-02T08:53:05.622Z,52.79
2023-03-02T08:54:05.591Z,51.89
2023-03-02T08:55:05.624Z,50.76
2023-03-02T08:56:06.405Z,51.45
2023-03-02T08:57:05.549Z,51.15
2023-03-02T08:58:05.548Z,49.60
2023-03-02T08:59:05.522Z,51.45
2023-03-02T09:00:05.524Z,52.17
2023-03-02T09:01:05.646Z,52.25
2023-03-02T09:02:05.512Z,52.87
2023-03-02T09:03:05.477Z,52.95
2023-03-02T09:04:05.499Z,52.31
2023-03-02T09:05:05.467Z,50.97
2023-03-02T09:06:05.433Z,51.05
2023-03-02T09:07:05.417Z,50.54
2023-03-02T09:08:05.421Z,49.49
2023-03-02T09:09:05.411Z,49.16
2023-03-02T09:10:05.436Z,47.42
2023-03-02T09:11:05.381Z,47.63
2023-03-02T09:12:05.373Z,47.40
2023-03-02T09:13:08.066Z,46.89
2023-03-02T09:14:05.357Z,47.60
2023-03-02T09:15:05.347Z,47.40
2023-03-02T09:16:05.332Z,47.19
2023-03-02T09:17:05.301Z,47.89
2023-03-02T09:18:05.326Z,47.68
2023-03-02T09:19:05.280Z,47.35
2023-03-02T09:20:05.357Z,45.92
2023-03-02T09:21:05.295Z,46.33
2023-03-02T09:22:05.251Z,47.05
2023-03-02T09:23:05.250Z,47.15
2023-03-02T09:24:05.228Z,45.49
2023-03-02T09:25:05.240Z,46.41
2023-03-02T09:26:05.221Z,46.82
2023-03-02T09:27:05.195Z,47.03
2023-03-02T09:28:05.189Z,45.78
2023-03-02T09:29:05.183Z,45.57
2023-03-02T09:30:05.177Z,45.37
2023-03-02T09:31:05.171Z,45.43
2023-03-02T09:32:05.344Z,44.73
2023-03-02T09:33:05.214Z,44.12
2023-03-02T09:34:05.189Z,44.63
2023-03-02T09:35:05.129Z,44.12
2023-03-02T09:36:05.110Z,44.96
2023-03-02T09:37:05.116Z,45.65
2023-03-02T09:38:05.151Z,45.12
2023-03-02T09:39:05.076Z,44.90
2023-03-02T09:40:05.058Z,43.67
2023-03-02T09:41:05.073Z,42.36
2023-03-02T09:42:05.040Z,42.79
2023-03-02T09:43:05.024Z,44.14
2023-03-02T09:44:05.019Z,44.65
2023-03-02T09:45:04.998Z,45.25
2023-03-02T09:46:05.044Z,44.94
2023-03-02T09:47:04.995Z,43.61
2023-03-02T09:48:04.971Z,45.57
2023-03-02T09:49:04.960Z,45.14
2023-03-02T09:50:04.992Z,44.71
2023-03-02T09:51:04.924Z,43.77
2023-03-02T09:52:04.943Z,44.37
2023-03-02T09:53:04.912Z,43.73
2023-03-02T09:54:04.956Z,43.84
2023-03-02T09:55:04.985Z,41.67
2023-03-02T09:56:04.882Z,43.61
2023-03-02T09:57:04.871Z,43.29
2023-03-02T09:58:04.863Z,42.37
2023-03-02T09:59:04.830Z,41.94
2023-03-02T10:00:18.070Z,41.23
2023-03-02T10:01:05.828Z,41.61
2023-03-02T10:02:04.839Z,41.21
2023-03-02T10:03:16.303Z,41.11
2023-03-02T10:04:05.953Z,41.72
2023-03-02T10:05:04.779Z,41.90
2023-03-02T10:06:04.797Z,42.69
2023-03-02T10:07:04.758Z,40.97
2023-03-02T10:08:04.748Z,41.46
2023-03-02T10:09:04.722Z,40.62
2023-03-02T10:10:04.719Z,40.62
2023-03-02T10:11:04.699Z,40.42
2023-03-02T10:12:04.724Z,41.72
2023-03-02T10:13:04.694Z,40.18
2023-03-02T10:14:04.660Z,38.76
2023-03-02T10:15:04.653Z,38.95
2023-03-02T10:16:04.745Z,39.35
2023-03-02T10:17:04.645Z,39.96
2023-03-02T10:18:04.644Z,39.13
2023-03-02T10:19:05.627Z,39.01
2023-03-02T10:20:04.606Z,38.70
2023-03-02T10:21:04.589Z,38.81
2023-03-02T10:22:04.663Z,40.41
2023-03-02T10:23:04.553Z,39.39
2023-03-02T10:24:04.590Z,39.17
2023-03-02T10:25:04.548Z,39.28
2023-03-02T10:26:04.524Z,38.46
2023-03-02T10:27:04.562Z,38.95
2023-03-02T10:28:04.521Z,38.85
2023-03-02T10:29:04.483Z,38.95
2023-03-02T10:30:04.476Z,38.63
2023-03-02T10:31:05.448Z,37.13
2023-03-02T10:32:04.599Z,38.37
2023-03-02T10:33:04.453Z,39.48
2023-03-02T10:34:04.443Z,38.26
2023-03-02T10:35:04.437Z,37.55
2023-03-02T10:36:04.425Z,37.96
2023-03-02T10:37:04.425Z,39.46
2023-03-02T10:38:04.466Z,38.33
2023-03-02T10:39:04.367Z,38.63
2023-03-02T10:40:04.363Z,37.90
2023-03-02T10:41:04.366Z,38.19
2023-03-02T10:42:04.370Z,37.59
2023-03-02T10:43:04.342Z,37.48
2023-03-02T10:44:04.315Z,37.28
2023-03-02T10:45:04.353Z,37.37
2023-03-02T10:46:04.377Z,37.37
2023-03-02T10:47:04.279Z,36.86
2023-03-02T10:48:04.315Z,37.04
2023-03-02T10:49:04.257Z,36.25
2023-03-02T10:50:04.268Z,36.04
2023-03-02T10:51:04.261Z,37.37
2023-03-02T10:52:04.258Z,36.64
2023-03-02T10:53:05.344Z,37.35
2023-03-02T10:54:04.290Z,37.75
2023-03-02T10:55:04.224Z,37.45
2023-03-02T10:56:04.194Z,37.55
2023-03-02T10:57:04.186Z,37.24
2023-03-02T10:58:04.162Z,36.94
2023-03-02T10:59:04.145Z,36.22
2023-03-02T11:00:04.136Z,36.04
2023-03-02T11:01:04.132Z,36.74
2023-03-02T11:02:04.144Z,37.24
2023-03-02T11:03:04.103Z,37.45
2023-03-02T11:04:04.164Z,36.84
2023-03-02T11:05:04.158Z,37.24
2023-03-02T11:06:04.084Z,36.12
2023-03-02T11:07:04.093Z,37.43
2023-03-02T11:08:04.081Z,36.62
2023-03-02T11:09:04.057Z,36.20
2023-03-02T11:10:04.051Z,36.20
2023-03-02T11:11:04.024Z,36.61
2023-03-02T11:12:04.119Z,36.51
2023-03-02T11:13:04.034Z,35.39
2023-03-02T11:14:03.992Z,35.38
2023-03-02T11:15:03.977Z,36.10
2023-03-02T11:16:04.096Z,36.10
2023-03-02T11:17:03.956Z,36.62
2023-03-02T11:18:03.973Z,36.42
2023-03-02T11:19:03.929Z,37.43
2023-03-02T11:20:03.913Z,37.41
2023-03-02T11:21:03.898Z,37.33
2023-03-02T11:22:03.928Z,36.71
2023-03-02T11:23:03.887Z,36.81
2023-03-02T11:24:03.874Z,36.00
2023-03-02T11:25:03.859Z,37.43
2023-03-02T11:26:03.877Z,36.12
2023-03-02T11:27:03.859Z,36.62
2023-03-02T11:28:03.820Z,36.51
2023-03-02T11:29:03.817Z,36.91
2023-03-02T11:30:03.830Z,36.61
2023-03-02T11:31:03.905Z,36.20
2023-03-02T11:32:03.813Z,36.40
2023-03-02T11:33:03.789Z,36.20
2023-03-02T11:34:11.575Z,36.61
2023-03-02T11:35:04.757Z,36.20
2023-03-02T11:36:03.845Z,35.80
2023-03-02T11:37:03.744Z,36.00
2023-03-02T11:38:03.721Z,36.20
2023-03-02T11:39:03.715Z,37.41
2023-03-02T11:40:03.700Z,36.00
2023-03-02T11:41:03.682Z,36.61
2023-03-02T11:42:03.725Z,35.99
2023-03-02T11:43:03.664Z,36.10
2023-03-02T11:44:03.670Z,36.19
2023-03-02T11:45:03.688Z,37.09
2023-03-02T11:46:10.908Z,37.27
2023-03-02T11:47:04.696Z,36.57
2023-03-02T11:48:04.214Z,36.15
2023-03-02T11:49:03.595Z,36.55
2023-03-02T11:50:03.584Z,35.45
2023-03-02T11:51:03.576Z,35.65
2023-03-02T11:52:03.569Z,35.63
2023-03-02T11:53:03.546Z,35.63
2023-03-02T11:54:03.564Z,35.23
2023-03-02T11:55:03.514Z,36.15
2023-03-02T11:56:03.520Z,35.83
2023-03-02T11:57:03.503Z,36.15
2023-03-02T11:58:03.582Z,35.65
2023-03-02T11:59:03.488Z,35.95
2023-03-02T12:00:03.460Z,36.25
2023-03-02T12:01:03.471Z,36.24
2023-03-02T12:02:03.541Z,36.13
2023-03-02T12:03:03.439Z,35.33
2023-03-02T12:04:03.415Z,34.42
2023-03-02T12:05:03.457Z,34.83
2023-03-02T12:06:05.264Z,35.14
2023-03-02T12:07:03.376Z,35.75
2023-03-02T12:08:03.375Z,36.05
2023-03-02T12:09:03.393Z,35.95
2023-03-02T12:10:03.365Z,36.25
2023-03-02T12:11:03.361Z,36.13
2023-03-02T12:12:04.872Z,36.32
2023-03-02T12:13:03.321Z,34.92
2023-03-02T12:14:03.336Z,35.85
2023-03-02T12:15:03.293Z,35.65
2023-03-02T12:16:03.379Z,35.73
2023-03-02T12:17:03.297Z,35.43
2023-03-02T12:18:03.314Z,35.65
2023-03-02T12:19:03.250Z,34.83
2023-03-02T12:20:03.243Z,35.43
2023-03-02T12:21:03.263Z,35.73
2023-03-02T12:22:03.211Z,34.72
2023-03-02T12:23:03.211Z,34.92
2023-03-02T12:24:03.204Z,35.03
2023-03-02T12:25:03.193Z,35.23
2023-03-02T12:26:03.194Z,35.73
2023-03-02T12:27:03.157Z,35.91
2023-03-02T12:28:03.140Z,36.11
2023-03-02T12:29:03.141Z,35.01
2023-03-02T12:30:03.177Z,34.69
2023-03-02T12:31:03.125Z,34.89
2023-03-02T12:32:03.205Z,34.19
2023-03-02T12:33:03.116Z,34.69
2023-03-02T12:34:03.087Z,34.49
2023-03-02T12:35:03.079Z,34.79
2023-03-02T12:36:03.049Z,33.97
2023-03-02T12:37:03.140Z,33.87
2023-03-02T12:38:03.122Z,34.17
2023-03-02T12:39:03.034Z,34.58
2023-03-02T12:40:03.372Z,34.38
2023-03-02T12:41:03.003Z,35.38
2023-03-02T12:42:03.042Z,34.66
2023-03-02T12:43:02.994Z,34.36
2023-03-02T12:44:03.021Z,34.86
2023-03-02T12:45:02.986Z,33.86
2023-03-02T12:46:03.137Z,34.36
2023-03-02T12:47:04.124Z,34.16
2023-03-02T12:48:03.478Z,34.94
2023-03-02T12:49:03.711Z,34.44
2023-03-02T12:50:02.891Z,34.24
2023-03-02T12:51:03.035Z,34.74
2023-03-02T12:52:03.025Z,34.74